Time;durP1;ratioP1;P1;durP2;ratioP2;P2;SDS_P1;SDS_P2;PMS_P1;PMS_P2;Temp;Humidity;BMP_temperature;BMP_pressure;BME280_temperature;BME280_humidity;BME280_pressure;Samples;Min_cycle;Max_cycle;Signal;HPM_P1;HPM_P2
2024/01/13 00:00:36;;;;;;;17.77;11.10;;;;;;;;;;5038191;28;20017;-91
2024/01/13 00:03:02;;;;;;;25.57;11.40;;;;;;;;;;5039627;28;20037;-90
2024/01/13 00:05:27;;;;;;;26.37;10.57;;;;;;;;;;5050487;28;20048;-91
2024/01/13 00:07:52;;;;;;;22.93;10.83;;;;;;;;;;5032928;28;20108;-90
2024/01/13 00:10:17;;;;;;;21.13;10.20;;;;;;;;;;5034746;28;20025;-90
2024/01/13 00:12:42;;;;;;;20.50;9.53;;;;;;;;;;5034002;28;20025;-92
2024/01/13 00:15:08;;;;;;;22.53;10.07;;;;;;;;;;5033669;28;20018;-91
2024/01/13 00:17:33;;;;;;;24.83;10.20;;;;;;;;;;5034817;28;20296;-91
2024/01/13 00:19:58;;;;;;;23.23;10.07;;;;;;;;;;5034700;28;20032;-91
2024/01/13 00:22:23;;;;;;;21.17;9.13;;;;;;;;;;5032083;28;20056;-91
2024/01/13 00:24:49;;;;;;;19.40;9.97;;;;;;;;;;5032621;28;20108;-91
2024/01/13 00:27:14;;;;;;;21.97;11.23;;;;;;;;;;5033149;28;20037;-92
2024/01/13 00:29:39;;;;;;;26.70;10.93;;;;;;;;;;5032596;28;20025;-90
2024/01/13 00:32:04;;;;;;;18.17;9.43;;;;;;;;;;5032566;28;20021;-90
2024/01/13 00:34:30;;;;;;;19.83;10.37;;;;;;;;;;5033662;28;20025;-92
2024/01/13 00:36:55;;;;;;;19.67;9.80;;;;;;;;;;5038537;28;20113;-91
2024/01/13 00:39:20;;;;;;;19.50;9.43;;;;;;;;;;5038343;28;20057;-90
2024/01/13 00:41:45;;;;;;;20.53;9.40;;;;;;;;;;5035305;28;20047;-90
2024/01/13 00:44:10;;;;;;;18.37;9.13;;;;;;;;;;5032477;28;20045;-90
2024/01/13 00:46:36;;;;;;;18.07;8.60;;;;;;;;;;5033207;28;20029;-91
2024/01/13 00:49:01;;;;;;;14.23;8.47;;;;;;;;;;5032305;28;20017;-91
2024/01/13 00:51:26;;;;;;;18.17;8.83;;;;;;;;;;5031999;28;20576;-90
2024/01/13 00:53:51;;;;;;;19.47;8.57;;;;;;;;;;5030597;28;20064;-91
2024/01/13 00:56:17;;;;;;;16.80;8.53;;;;;;;;;;5032076;28;20021;-91
2024/01/13 00:58:42;;;;;;;17.70;8.83;;;;;;;;;;5031846;28;20060;-91
2024/01/13 01:01:07;;;;;;;19.27;8.60;;;;;;;;;;5031765;28;20311;-91
2024/01/13 01:03:32;;;;;;;14.90;7.70;;;;;;;;;;5030533;28;20026;-91
2024/01/13 01:05:58;;;;;;;12.50;7.93;;;;;;;;;;5031624;28;20176;-90
2024/01/13 01:08:23;;;;;;;14.47;7.77;;;;;;;;;;5031711;28;20021;-92
2024/01/13 01:10:48;;;;;;;14.50;8.53;;;;;;;;;;5031557;28;20519;-91
2024/01/13 01:13:13;;;;;;;15.23;7.97;;;;;;;;;;5030205;28;20014;-91
2024/01/13 01:15:39;;;;;;;13.83;7.83;;;;;;;;;;5031991;28;20365;-90
2024/01/13 01:18:04;;;;;;;16.37;8.10;;;;;;;;;;5034803;28;20052;-90
2024/01/13 01:20:30;;;;;;;17.93;8.57;;;;;;;;;;5037096;28;20272;-91
2024/01/13 01:22:55;;;;;;;14.33;8.23;;;;;;;;;;5035537;28;20028;-91
2024/01/13 01:25:20;;;;;;;15.83;8.93;;;;;;;;;;5036651;28;20021;-91
2024/01/13 01:27:46;;;;;;;17.70;8.75;;;;;;;;;;5031347;28;20033;-91
2024/01/13 01:30:12;;;;;;;18.40;8.93;;;;;;;;;;5031060;28;20049;-90
2024/01/13 01:32:37;;;;;;;12.63;8.80;;;;;;;;;;5031165;28;20104;-90
2024/01/13 01:35:03;;;;;;;20.83;8.93;;;;;;;;;;5031490;28;20387;-91
2024/01/13 01:37:28;;;;;;;14.27;8.67;;;;;;;;;;5031445;28;20090;-91
2024/01/13 01:39:53;;;;;;;18.77;8.77;;;;;;;;;;5031079;28;20424;-91
2024/01/13 01:42:18;;;;;;;17.90;8.57;;;;;;;;;;5030976;28;20029;-92
2024/01/13 01:44:43;;;;;;;16.80;9.00;;;;;;;;;;5031397;28;20104;-91
2024/01/13 01:47:09;;;;;;;17.87;8.77;;;;;;;;;;5031064;28;20044;-91
2024/01/13 01:49:34;;;;;;;19.80;9.63;;;;;;;;;;5029862;28;20025;-91
2024/01/13 01:52:00;;;;;;;17.00;9.23;;;;;;;;;;5030503;28;20022;-91
2024/01/13 01:54:25;;;;;;;17.07;8.63;;;;;;;;;;5030852;28;20351;-91
2024/01/13 01:56:50;;;;;;;18.40;9.07;;;;;;;;;;5030666;28;20043;-92
2024/01/13 01:59:15;;;;;;;17.73;9.23;;;;;;;;;;5031873;28;20388;-92
2024/01/13 02:01:41;;;;;;;19.43;9.80;;;;;;;;;;5034052;28;20075;-90
2024/01/13 02:04:06;;;;;;;23.17;10.43;;;;;;;;;;5036821;28;20029;-91
2024/01/13 02:06:31;;;;;;;16.70;8.87;;;;;;;;;;5047854;28;20112;-92
2024/01/13 02:08:56;;;;;;;15.80;9.67;;;;;;;;;;5035415;28;20013;-92
2024/01/13 02:11:22;;;;;;;13.80;8.90;;;;;;;;;;5030001;28;20017;-91
2024/01/13 02:13:49;;;;;;;21.70;9.47;;;;;;;;;;5030986;28;20026;-91
2024/01/13 02:16:15;;;;;;;18.02;9.50;;;;;;;;;;5030739;28;20115;-91
2024/01/13 02:18:40;;;;;;;18.88;10.30;;;;;;;;;;5031225;28;20041;-91
2024/01/13 02:21:06;;;;;;;15.57;9.23;;;;;;;;;;5030486;28;20489;-92
2024/01/13 02:23:31;;;;;;;13.77;9.33;;;;;;;;;;5030759;28;20019;-91
2024/01/13 02:25:56;;;;;;;16.90;9.90;;;;;;;;;;5030585;28;20287;-92
2024/01/13 02:28:21;;;;;;;15.47;9.40;;;;;;;;;;5031046;28;20040;-91
2024/01/13 02:30:46;;;;;;;21.70;10.57;;;;;;;;;;5030469;28;20028;-92
2024/01/13 02:33:12;;;;;;;18.83;10.17;;;;;;;;;;5031015;28;20383;-91
2024/01/13 02:35:37;;;;;;;19.17;11.07;;;;;;;;;;5034312;28;20033;-91
2024/01/13 02:38:02;;;;;;;17.30;10.47;;;;;;;;;;5035163;28;20053;-92
2024/01/13 02:40:27;;;;;;;16.10;10.53;;;;;;;;;;5035246;28;20130;-92
2024/01/13 02:42:52;;;;;;;21.10;10.87;;;;;;;;;;5036210;28;20442;-92
2024/01/13 02:45:17;;;;;;;15.43;10.13;;;;;;;;;;5039115;28;20029;-92
2024/01/13 02:47:44;;;;;;;16.97;9.97;;;;;;;;;;5043022;28;20033;-89
2024/01/13 02:50:09;;;;;;;21.77;10.57;;;;;;;;;;5036446;28;20029;-91
2024/01/13 02:52:35;;;;;;;19.53;11.27;;;;;;;;;;5040534;28;20021;-90
2024/01/13 02:55:00;;;;;;;16.80;10.57;;;;;;;;;;5034844;28;20010;-91
2024/01/13 02:57:25;;;;;;;17.40;10.63;;;;;;;;;;5034894;28;20473;-91
2024/01/13 02:59:51;;;;;;;18.83;10.38;;;;;;;;;;5034791;28;20106;-92
2024/01/13 03:02:16;;;;;;;21.03;11.27;;;;;;;;;;5038008;28;20013;-92
2024/01/13 03:04:42;;;;;;;18.37;10.80;;;;;;;;;;5038351;28;20372;-93
2024/01/13 03:07:07;;;;;;;19.00;11.33;;;;;;;;;;5037465;28;20029;-92
2024/01/13 03:09:32;;;;;;;16.37;10.83;;;;;;;;;;5034802;28;20274;-92
2024/01/13 03:11:57;;;;;;;18.00;11.27;;;;;;;;;;5033846;28;20017;-91
2024/01/13 03:14:23;;;;;;;16.07;10.90;;;;;;;;;;5033954;28;20029;-92
2024/01/13 03:16:48;;;;;;;19.70;11.07;;;;;;;;;;5034282;28;20026;-92
2024/01/13 03:19:13;;;;;;;22.07;11.27;;;;;;;;;;5033965;28;20377;-92
2024/01/13 03:21:39;;;;;;;18.80;11.33;;;;;;;;;;5032406;28;20476;-91
2024/01/13 03:24:04;;;;;;;18.33;12.10;;;;;;;;;;5032588;28;20021;-91
2024/01/13 03:26:29;;;;;;;18.27;12.17;;;;;;;;;;5035374;28;20079;-92
2024/01/13 03:28:54;;;;;;;20.83;11.67;;;;;;;;;;5041971;28;20340;-92
2024/01/13 03:31:19;;;;;;;22.27;11.10;;;;;;;;;;5036797;28;20457;-92
2024/01/13 03:33:45;;;;;;;15.17;10.37;;;;;;;;;;5038664;28;20045;-92
2024/01/13 03:36:10;;;;;;;17.03;10.10;;;;;;;;;;5039476;28;20384;-92
2024/01/13 03:38:36;;;;;;;14.17;9.53;;;;;;;;;;5031983;28;20021;-92
2024/01/13 03:41:01;;;;;;;15.37;9.80;;;;;;;;;;5033364;28;20017;-91
2024/01/13 03:43:26;;;;;;;14.07;9.70;;;;;;;;;;5033148;28;20048;-91
2024/01/13 03:45:51;;;;;;;18.50;8.97;;;;;;;;;;5033057;28;20461;-91
2024/01/13 03:48:16;;;;;;;12.10;8.43;;;;;;;;;;5033341;28;20678;-91
2024/01/13 03:50:42;;;;;;;13.37;8.07;;;;;;;;;;5033269;28;20010;-92
2024/01/13 03:53:07;;;;;;;11.83;8.20;;;;;;;;;;5033040;28;20740;-91
2024/01/13 03:55:33;;;;;;;12.07;7.80;;;;;;;;;;5032117;28;20037;-91
2024/01/13 03:57:58;;;;;;;10.20;7.57;;;;;;;;;;5033182;28;20025;-91
2024/01/13 04:00:23;;;;;;;12.20;7.53;;;;;;;;;;5033146;28;20024;-91
2024/01/13 04:02:48;;;;;;;10.40;7.30;;;;;;;;;;5033280;28;20496;-92
2024/01/13 04:05:14;;;;;;;10.73;6.73;;;;;;;;;;5035307;28;20167;-92
2024/01/13 04:07:39;;;;;;;12.00;6.67;;;;;;;;;;5048314;28;20061;-91
2024/01/13 04:10:05;;;;;;;8.67;6.20;;;;;;;;;;5040409;28;20472;-92
2024/01/13 04:12:30;;;;;;;10.20;6.50;;;;;;;;;;5036983;28;20044;-91
2024/01/13 04:14:55;;;;;;;8.93;6.40;;;;;;;;;;5034919;28;20358;-91
2024/01/13 04:17:20;;;;;;;9.93;5.37;;;;;;;;;;5041893;28;20052;-92
2024/01/13 04:19:46;;;;;;;9.07;6.23;;;;;;;;;;5039868;28;20402;-92
2024/01/13 04:22:11;;;;;;;8.43;5.77;;;;;;;;;;5032481;28;20024;-91
2024/01/13 04:24:36;;;;;;;7.17;5.37;;;;;;;;;;5033352;28;20485;-91
2024/01/13 04:27:01;;;;;;;6.87;5.57;;;;;;;;;;5034091;28;20040;-92
2024/01/13 04:29:26;;;;;;;11.43;5.70;;;;;;;;;;5033312;28;20120;-91
2024/01/13 04:31:51;;;;;;;8.40;5.30;;;;;;;;;;5031810;28;20036;-91
2024/01/13 04:34:17;;;;;;;6.60;4.80;;;;;;;;;;5032701;28;20017;-92
2024/01/13 04:36:42;;;;;;;6.70;4.80;;;;;;;;;;5031080;28;20362;-92
2024/01/13 04:39:07;;;;;;;7.03;4.90;;;;;;;;;;5032309;28;20092;-92
2024/01/13 04:41:32;;;;;;;6.93;5.43;;;;;;;;;;5031922;28;20022;-92
2024/01/13 04:43:57;;;;;;;7.63;5.23;;;;;;;;;;5032321;28;20079;-92
2024/01/13 04:46:23;;;;;;;7.90;5.67;;;;;;;;;;5032523;28;20034;-92
2024/01/13 04:48:48;;;;;;;7.17;5.07;;;;;;;;;;5032759;28;20079;-91
2024/01/13 04:51:13;;;;;;;7.77;5.40;;;;;;;;;;5032551;28;20119;-91
2024/01/13 04:53:38;;;;;;;8.00;5.43;;;;;;;;;;5034589;28;20025;-92
2024/01/13 04:56:04;;;;;;;8.53;5.40;;;;;;;;;;5035380;28;20014;-92
2024/01/13 04:58:29;;;;;;;7.72;5.50;;;;;;;;;;5034752;28;20025;-91
2024/01/13 05:00:54;;;;;;;6.17;4.87;;;;;;;;;;5040987;28;20146;-91
2024/01/13 05:03:19;;;;;;;8.53;5.27;;;;;;;;;;5038134;28;20021;-92
2024/01/13 05:05:44;;;;;;;8.87;5.60;;;;;;;;;;5032012;28;20505;-91
2024/01/13 05:08:10;;;;;;;9.63;5.70;;;;;;;;;;5031908;28;20037;-91
2024/01/13 05:10:35;;;;;;;8.23;6.20;;;;;;;;;;5031625;28;20017;-91
2024/01/13 05:13:00;;;;;;;9.83;6.50;;;;;;;;;;5032061;28;20435;-91
2024/01/13 05:15:25;;;;;;;8.90;6.03;;;;;;;;;;5031603;28;20547;-91
2024/01/13 05:17:50;;;;;;;10.07;6.40;;;;;;;;;;5031817;28;20021;-91
2024/01/13 05:20:16;;;;;;;12.17;6.07;;;;;;;;;;5031161;28;20040;-91
2024/01/13 05:22:41;;;;;;;11.63;7.47;;;;;;;;;;5030560;28;20117;-90
2024/01/13 05:25:07;;;;;;;13.43;8.33;;;;;;;;;;5031295;28;20741;-93
2024/01/13 05:27:33;;;;;;;14.93;8.60;;;;;;;;;;5030240;28;20026;-91
2024/01/13 05:29:58;;;;;;;15.07;9.63;;;;;;;;;;5031594;28;20060;-93
2024/01/13 05:32:23;;;;;;;15.97;9.07;;;;;;;;;;5031561;28;20025;-91
2024/01/13 05:34:48;;;;;;;18.03;10.17;;;;;;;;;;5032064;28;20128;-93
2024/01/13 05:37:13;;;;;;;17.03;10.20;;;;;;;;;;5034362;28;20041;-90
2024/01/13 05:39:39;;;;;;;18.43;10.60;;;;;;;;;;5033079;28;20467;-91
2024/01/13 05:42:04;;;;;;;19.43;11.23;;;;;;;;;;5034741;28;20029;-91
2024/01/13 05:44:29;;;;;;;21.37;11.87;;;;;;;;;;5040141;28;20020;-91
2024/01/13 05:46:54;;;;;;;20.40;12.07;;;;;;;;;;5034812;28;20029;-91
2024/01/13 05:49:19;;;;;;;25.53;13.37;;;;;;;;;;5031512;28;20045;-91
2024/01/13 05:51:45;;;;;;;25.20;13.37;;;;;;;;;;5030920;28;20025;-91
2024/01/13 05:54:10;;;;;;;24.37;13.60;;;;;;;;;;5031023;28;20421;-91
2024/01/13 05:56:38;;;;;;;28.83;14.37;;;;;;;;;;5031068;28;20025;-92
2024/01/13 05:59:03;;;;;;;27.58;15.13;;;;;;;;;;5031538;28;20485;-92
2024/01/13 06:01:28;;;;;;;31.03;16.47;;;;;;;;;;5030755;28;20028;-91
2024/01/13 06:03:53;;;;;;;27.47;15.73;;;;;;;;;;5031479;28;20018;-90
2024/01/13 06:06:19;;;;;;;27.83;15.23;;;;;;;;;;5032107;28;20022;-91
2024/01/13 06:08:44;;;;;;;27.37;15.43;;;;;;;;;;5044049;28;20337;-92
2024/01/13 06:11:09;;;;;;;28.63;16.63;;;;;;;;;;5047640;28;19994;-92
2024/01/13 06:13:35;;;;;;;30.40;17.57;;;;;;;;;;5031858;28;20048;-91
2024/01/13 06:16:00;;;;;;;35.00;18.90;;;;;;;;;;5030934;28;20489;-91
2024/01/13 06:18:25;;;;;;;29.10;17.53;;;;;;;;;;5031713;28;20353;-91
2024/01/13 06:20:50;;;;;;;32.27;18.40;;;;;;;;;;5037388;28;20071;-93
2024/01/13 06:23:15;;;;;;;37.03;20.27;;;;;;;;;;5033295;28;20075;-91
2024/01/13 06:25:40;;;;;;;31.30;18.20;;;;;;;;;;5035141;28;20026;-90
2024/01/13 06:28:06;;;;;;;35.33;19.23;;;;;;;;;;5039425;28;20033;-90
2024/01/13 06:30:31;;;;;;;37.00;21.20;;;;;;;;;;5030584;28;20473;-91
2024/01/13 06:32:57;;;;;;;37.83;20.37;;;;;;;;;;5030987;28;20385;-90
2024/01/13 06:35:22;;;;;;;33.13;19.37;;;;;;;;;;5030598;28;20021;-91
2024/01/13 06:37:47;;;;;;;42.03;21.03;;;;;;;;;;5030863;28;20025;-92
2024/01/13 06:40:12;;;;;;;36.67;19.70;;;;;;;;;;5028656;28;20079;-90
2024/01/13 06:42:38;;;;;;;36.95;19.35;;;;;;;;;;5029209;28;20052;-89
2024/01/13 06:45:03;;;;;;;38.13;18.90;;;;;;;;;;5030143;28;20018;-90
2024/01/13 06:47:29;;;;;;;40.27;22.50;;;;;;;;;;5030604;28;20062;-89
2024/01/13 06:49:54;;;;;;;43.92;21.60;;;;;;;;;;5028356;28;20017;-89
2024/01/13 06:52:19;;;;;;;40.00;20.70;;;;;;;;;;5030571;28;20029;-91
2024/01/13 06:54:45;;;;;;;41.30;21.30;;;;;;;;;;5030271;28;20025;-92
2024/01/13 06:57:10;;;;;;;41.43;21.10;;;;;;;;;;5030787;28;20381;-92
2024/01/13 06:59:35;;;;;;;39.60;20.80;;;;;;;;;;5030467;28;20084;-91
2024/01/13 07:02:00;;;;;;;42.53;21.70;;;;;;;;;;5030489;28;20076;-91
2024/01/13 07:04:27;;;;;;;36.50;20.77;;;;;;;;;;5036590;28;20053;-91
2024/01/13 07:06:52;;;;;;;44.50;22.50;;;;;;;;;;5035234;28;20045;-91
2024/01/13 07:09:18;;;;;;;40.43;21.23;;;;;;;;;;5032092;28;20018;-91
2024/01/13 07:11:46;;;;;;;38.43;20.33;;;;;;;;;;5035402;28;20013;-91
2024/01/13 07:14:11;;;;;;;40.40;21.40;;;;;;;;;;5028501;28;20018;-90
2024/01/13 07:16:36;;;;;;;41.27;21.67;;;;;;;;;;5030774;28;20090;-91
2024/01/13 07:19:02;;;;;;;42.47;21.67;;;;;;;;;;5028818;28;20044;-91
2024/01/13 07:21:29;;;;;;;38.80;20.70;;;;;;;;;;5032900;28;20094;-91
2024/01/13 07:23:54;;;;;;;40.42;21.92;;;;;;;;;;5032238;28;20022;-91
2024/01/13 07:26:19;;;;;;;45.03;23.30;;;;;;;;;;5033973;28;20031;-91
2024/01/13 07:28:44;;;;;;;44.10;22.50;;;;;;;;;;5033664;28;20377;-91
2024/01/13 07:31:10;;;;;;;40.63;21.97;;;;;;;;;;5032113;28;20028;-92
2024/01/13 07:33:35;;;;;;;41.92;21.52;;;;;;;;;;5032189;28;20120;-91
2024/01/13 07:36:01;;;;;;;40.37;21.30;;;;;;;;;;5033987;28;20017;-92
2024/01/13 07:38:26;;;;;;;41.60;20.87;;;;;;;;;;5033551;28;20552;-91
2024/01/13 07:40:51;;;;;;;40.20;21.23;;;;;;;;;;5033402;28;20027;-90
2024/01/13 07:43:16;;;;;;;43.33;21.27;;;;;;;;;;5033264;28;20113;-91
2024/01/13 07:45:41;;;;;;;42.33;22.23;;;;;;;;;;5033714;28;20445;-91
2024/01/13 07:48:07;;;;;;;42.90;21.63;;;;;;;;;;5038508;28;20116;-91
2024/01/13 07:50:32;;;;;;;43.50;21.13;;;;;;;;;;5035372;28;20017;-91
2024/01/13 07:52:57;;;;;;;38.33;20.30;;;;;;;;;;5033773;28;20094;-91
2024/01/13 07:55:23;;;;;;;40.97;20.83;;;;;;;;;;5037692;28;20544;-92
2024/01/13 07:57:48;;;;;;;42.57;21.37;;;;;;;;;;5033492;28;20022;-92
2024/01/13 08:00:13;;;;;;;40.83;21.40;;;;;;;;;;5033176;28;20362;-91
2024/01/13 08:02:38;;;;;;;44.47;21.27;;;;;;;;;;5031265;28;20025;-91
2024/01/13 08:05:04;;;;;;;42.77;22.73;;;;;;;;;;5033256;28;20075;-90
2024/01/13 08:07:29;;;;;;;40.13;21.00;;;;;;;;;;5034339;28;20083;-92
2024/01/13 08:09:54;;;;;;;38.40;20.77;;;;;;;;;;5041208;28;20025;-92
2024/01/13 08:12:19;;;;;;;42.17;20.50;;;;;;;;;;5050884;28;20029;-91
2024/01/13 08:14:44;;;;;;;34.30;19.37;;;;;;;;;;5033067;28;20437;-92
2024/01/13 08:17:10;;;;;;;36.90;19.93;;;;;;;;;;5034340;28;20025;-91
2024/01/13 08:19:36;;;;;;;40.67;20.30;;;;;;;;;;5034672;28;20020;-90
2024/01/13 08:22:02;;;;;;;35.65;19.05;;;;;;;;;;5033000;28;20036;-91
2024/01/13 08:24:27;;;;;;;40.40;20.02;;;;;;;;;;5035400;28;20029;-90
2024/01/13 08:26:54;;;;;;;34.93;19.53;;;;;;;;;;5034852;28;20025;-91
2024/01/13 08:29:19;;;;;;;36.42;19.98;;;;;;;;;;5036264;28;20384;-91
2024/01/13 08:31:47;;;;;;;39.50;19.97;;;;;;;;;;5035936;28;20017;-91
2024/01/13 08:34:13;;;;;;;36.55;19.40;;;;;;;;;;5033645;28;20087;-92
2024/01/13 08:36:38;;;;;;;32.67;17.50;;;;;;;;;;5036160;28;20018;-91
2024/01/13 08:39:03;;;;;;;39.63;19.47;;;;;;;;;;5037312;28;20078;-91
2024/01/13 08:41:31;;;;;;;37.83;19.50;;;;;;;;;;5032349;28;20032;-92
2024/01/13 08:43:56;;;;;;;38.67;20.50;;;;;;;;;;5031340;28;20033;-91
2024/01/13 08:46:21;;;;;;;41.30;20.10;;;;;;;;;;5032529;28;20025;-92
2024/01/13 08:48:46;;;;;;;37.17;19.40;;;;;;;;;;5031349;28;20489;-91
2024/01/13 08:51:11;;;;;;;35.70;19.47;;;;;;;;;;5031887;28;20061;-91
2024/01/13 08:53:37;;;;;;;33.73;18.50;;;;;;;;;;5031136;28;20053;-91
2024/01/13 08:56:02;;;;;;;35.57;19.37;;;;;;;;;;5030722;28;20017;-91
2024/01/13 08:58:27;;;;;;;37.67;20.20;;;;;;;;;;5030869;28;20041;-91
2024/01/13 09:00:54;;;;;;;38.97;19.73;;;;;;;;;;5031989;28;20025;-91
2024/01/13 09:03:20;;;;;;;38.05;20.08;;;;;;;;;;5031380;28;20101;-92
2024/01/13 09:05:45;;;;;;;40.20;21.90;;;;;;;;;;5030738;28;20125;-91
2024/01/13 09:08:10;;;;;;;38.57;19.63;;;;;;;;;;5032560;28;20449;-91
2024/01/13 09:10:35;;;;;;;33.33;20.23;;;;;;;;;;5031807;28;20124;-91
2024/01/13 09:13:01;;;;;;;37.50;20.57;;;;;;;;;;5032279;28;20053;-92
2024/01/13 09:15:26;;;;;;;38.30;20.70;;;;;;;;;;5035668;28;20018;-92
2024/01/13 09:17:51;;;;;;;39.10;20.47;;;;;;;;;;5038777;28;20116;-91
2024/01/13 09:20:16;;;;;;;39.10;21.50;;;;;;;;;;5034850;28;20560;-91
2024/01/13 09:22:41;;;;;;;37.10;19.40;;;;;;;;;;5034060;28;20025;-90
2024/01/13 09:25:07;;;;;;;41.97;21.40;;;;;;;;;;5031994;28;20049;-91
2024/01/13 09:27:33;;;;;;;39.63;21.17;;;;;;;;;;5039421;28;20349;-91
2024/01/13 09:29:58;;;;;;;36.93;20.03;;;;;;;;;;5031898;28;20493;-91
2024/01/13 09:32:24;;;;;;;42.17;21.75;;;;;;;;;;5032029;28;20211;-91
2024/01/13 09:34:49;;;;;;;39.63;21.10;;;;;;;;;;5031239;28;20121;-91
2024/01/13 09:37:15;;;;;;;39.73;21.17;;;;;;;;;;5030511;28;20036;-91
2024/01/13 09:39:40;;;;;;;40.35;21.17;;;;;;;;;;5029855;28;20430;-91
2024/01/13 09:42:05;;;;;;;37.93;20.30;;;;;;;;;;5030879;28;20030;-91
2024/01/13 09:44:32;;;;;;;36.87;20.87;;;;;;;;;;5030779;28;20019;-92
2024/01/13 09:46:58;;;;;;;39.00;20.67;;;;;;;;;;5029977;28;20048;-92
2024/01/13 09:49:25;;;;;;;36.95;19.90;;;;;;;;;;5031197;28;20022;-92
2024/01/13 09:51:50;;;;;;;36.90;21.23;;;;;;;;;;5031342;28;20026;-92
2024/01/13 09:54:26;;;;;;;38.58;20.67;;;;;;;;;;5030894;28;20029;-92
2024/01/13 09:56:51;;;;;;;38.55;20.33;;;;;;;;;;5032001;28;20026;-92
2024/01/13 09:59:19;;;;;;;36.67;20.37;;;;;;;;;;5038258;28;20108;-93
2024/01/13 10:01:45;;;;;;;37.05;21.17;;;;;;;;;;5042656;28;20014;-92
2024/01/13 10:04:10;;;;;;;38.70;20.97;;;;;;;;;;5032739;28;20024;-92
2024/01/13 10:06:35;;;;;;;36.37;20.00;;;;;;;;;;5031788;28;20075;-92
2024/01/13 10:09:01;;;;;;;33.88;18.98;;;;;;;;;;5033631;28;20064;-93
2024/01/13 10:11:28;;;;;;;32.20;19.50;;;;;;;;;;5040368;28;20002;-91
2024/01/13 10:13:59;;;;;;;34.27;19.07;;;;;;;;;;5049232;28;20162;-92
2024/01/13 10:16:26;;;;;;;35.17;18.93;;;;;;;;;;5032162;28;20786;-91
2024/01/13 10:18:52;;;;;;;33.50;19.05;;;;;;;;;;5031141;28;20484;-91
2024/01/13 10:21:17;;;;;;;32.38;19.27;;;;;;;;;;5030940;28;20048;-92
2024/01/13 10:23:42;;;;;;;32.43;18.53;;;;;;;;;;5031397;28;20469;-90
2024/01/13 10:26:09;;;;;;;34.30;18.10;;;;;;;;;;5030054;28;20120;-92
2024/01/13 10:28:34;;;;;;;25.85;15.80;;;;;;;;;;5031285;28;20389;-91
2024/01/13 10:31:00;;;;;;;30.17;18.17;;;;;;;;;;5030772;28;20014;-91
2024/01/13 10:33:26;;;;;;;33.08;18.17;;;;;;;;;;5031150;28;20112;-92
2024/01/13 10:35:51;;;;;;;33.97;19.00;;;;;;;;;;5031847;28;20028;-92
2024/01/13 10:38:16;;;;;;;31.27;17.83;;;;;;;;;;5031250;28;20105;-92
2024/01/13 10:40:42;;;;;;;28.13;16.80;;;;;;;;;;5036545;28;20036;-92
2024/01/13 10:43:09;;;;;;;32.73;19.07;;;;;;;;;;5042042;28;20093;-92
2024/01/13 10:45:36;;;;;;;30.17;18.95;;;;;;;;;;5040569;28;20089;-91
2024/01/13 10:48:04;;;;;;;28.50;17.95;;;;;;;;;;5037171;28;20212;-90
2024/01/13 10:50:30;;;;;;;28.55;17.95;;;;;;;;;;5037067;28;20605;-92
2024/01/13 10:53:07;;;;;;;29.92;18.15;;;;;;;;;;5035057;28;20206;-91
2024/01/13 10:55:34;;;;;;;30.88;18.23;;;;;;;;;;5038670;28;20018;-92
2024/01/13 10:58:01;;;;;;;32.23;18.33;;;;;;;;;;5042070;28;20048;-92
2024/01/13 11:00:27;;;;;;;26.98;17.13;;;;;;;;;;5041399;28;20021;-90
2024/01/13 11:02:53;;;;;;;32.00;17.42;;;;;;;;;;5039964;28;20040;-91
2024/01/13 11:05:19;;;;;;;30.60;17.92;;;;;;;;;;5035284;28;20163;-90
2024/01/13 11:07:44;;;;;;;34.72;18.50;;;;;;;;;;5032977;28;20116;-91
2024/01/13 11:10:15;;;;;;;32.20;18.43;;;;;;;;;;5034802;28;20071;-92
2024/01/13 11:12:48;;;;;;;31.63;19.63;;;;;;;;;;5034752;28;20040;-91
2024/01/13 11:15:19;;;;;;;32.80;18.77;;;;;;;;;;5033611;28;20017;-91
2024/01/13 11:17:47;;;;;;;31.67;17.93;;;;;;;;;;5034485;28;20270;-91
2024/01/13 11:20:15;;;;;;;30.63;18.20;;;;;;;;;;5035531;28;20059;-91
2024/01/13 11:22:40;;;;;;;28.90;18.67;;;;;;;;;;5037263;28;20049;-91
2024/01/13 11:25:23;;;;;;;28.27;18.23;;;;;;;;;;5037015;28;20099;-91
2024/01/13 11:27:58;;;;;;;31.13;18.92;;;;;;;;;;5039522;28;20041;-91
2024/01/13 11:30:39;;;;;;;31.33;17.90;;;;;;;;;;5036300;28;20028;-92
2024/01/13 11:33:10;;;;;;;27.67;17.50;;;;;;;;;;5033474;28;20089;-94
2024/01/13 11:35:36;;;;;;;30.90;17.52;;;;;;;;;;5030235;28;20017;-89
2024/01/13 11:38:02;;;;;;;31.27;17.67;;;;;;;;;;5033394;28;20029;-88
2024/01/13 11:40:27;;;;;;;29.23;17.45;;;;;;;;;;5028739;28;20032;-86
2024/01/13 11:43:03;;;;;;;30.10;17.33;;;;;;;;;;5026210;28;20087;-92
2024/01/13 11:45:35;;;;;;;31.88;16.95;;;;;;;;;;5033720;28;20026;-90
2024/01/13 11:48:19;;;;;;;30.37;16.63;;;;;;;;;;5034368;28;20103;-88
2024/01/13 11:50:50;;;;;;;29.73;17.00;;;;;;;;;;5018982;28;20064;-88
2024/01/13 11:53:35;;;;;;;26.40;16.52;;;;;;;;;;5025976;28;20028;-90
2024/01/13 11:56:05;;;;;;;25.73;16.40;;;;;;;;;;5035054;28;20017;-95
2024/01/13 11:58:33;;;;;;;28.35;15.90;;;;;;;;;;5032178;28;20025;-94
2024/01/13 12:00:59;;;;;;;26.27;15.27;;;;;;;;;;5034269;28;20065;-91
2024/01/13 12:03:24;;;;;;;25.33;15.53;;;;;;;;;;5034378;28;20068;-90
2024/01/13 12:05:50;;;;;;;26.40;15.30;;;;;;;;;;5034450;28;20174;-90
2024/01/13 12:08:15;;;;;;;26.23;14.90;;;;;;;;;;5032473;28;20052;-88
2024/01/13 12:10:43;;;;;;;25.90;15.23;;;;;;;;;;5032080;28;20055;-88
2024/01/13 12:13:15;;;;;;;28.80;15.48;;;;;;;;;;5025570;28;20032;-88
2024/01/13 12:15:45;;;;;;;22.58;14.80;;;;;;;;;;5026466;28;19998;-91
2024/01/13 12:18:10;;;;;;;22.77;14.13;;;;;;;;;;5039922;28;20151;-95
2024/01/13 12:20:36;;;;;;;27.47;15.43;;;;;;;;;;5027289;28;20104;-90
2024/01/13 12:23:02;;;;;;;25.77;15.02;;;;;;;;;;5016490;28;20014;-92
2024/01/13 12:25:29;;;;;;;25.17;15.23;;;;;;;;;;5033729;28;20380;-92
2024/01/13 12:27:54;;;;;;;24.17;14.83;;;;;;;;;;5027847;28;20172;-92
2024/01/13 12:30:19;;;;;;;27.60;14.83;;;;;;;;;;5012758;28;20105;-89
2024/01/13 12:32:45;;;;;;;24.43;15.07;;;;;;;;;;5026548;28;20335;-89
2024/01/13 12:35:12;;;;;;;24.57;15.13;;;;;;;;;;5023728;28;20022;-89
2024/01/13 12:37:37;;;;;;;23.77;14.60;;;;;;;;;;5028149;28;20031;-89
2024/01/13 12:40:02;;;;;;;27.57;15.93;;;;;;;;;;5034539;28;20045;-90
2024/01/13 12:42:27;;;;;;;24.20;14.77;;;;;;;;;;5015564;28;20037;-89
2024/01/13 12:44:53;;;;;;;27.13;15.07;;;;;;;;;;5012496;28;20097;-89
2024/01/13 12:47:18;;;;;;;25.80;14.90;;;;;;;;;;5022072;28;20116;-89
2024/01/13 12:49:43;;;;;;;23.77;14.00;;;;;;;;;;5021629;28;20056;-92
2024/01/13 12:52:08;;;;;;;24.53;14.30;;;;;;;;;;5015464;28;20022;-92
2024/01/13 12:54:34;;;;;;;23.77;14.07;;;;;;;;;;5024495;28;20010;-93
2024/01/13 12:56:59;;;;;;;27.77;15.07;;;;;;;;;;5031539;28;20044;-94
2024/01/13 12:59:25;;;;;;;23.55;14.15;;;;;;;;;;5029793;28;20136;-94
2024/01/13 13:01:50;;;;;;;27.47;14.90;;;;;;;;;;5037089;28;20013;-94
2024/01/13 13:04:15;;;;;;;26.27;15.53;;;;;;;;;;5038123;28;20032;-96
2024/01/13 13:06:42;;;;;;;23.27;14.05;;;;;;;;;;5038187;28;20025;-93
2024/01/13 13:09:10;;;;;;;25.52;13.98;;;;;;;;;;5028722;28;20352;-88
2024/01/13 13:11:35;;;;;;;26.23;15.02;;;;;;;;;;5027371;28;20052;-90
2024/01/13 13:14:00;;;;;;;23.97;13.40;;;;;;;;;;5028431;28;20543;-89
2024/01/13 13:16:25;;;;;;;27.33;15.57;;;;;;;;;;5030829;28;20025;-89
2024/01/13 13:18:51;;;;;;;29.20;15.70;;;;;;;;;;5030022;28;20473;-89
2024/01/13 13:21:16;;;;;;;31.43;15.37;;;;;;;;;;5019796;28;20017;-89
2024/01/13 13:23:42;;;;;;;30.83;16.30;;;;;;;;;;5024224;28;20041;-91
2024/01/13 13:26:08;;;;;;;31.52;16.48;;;;;;;;;;5029596;28;20056;-90
2024/01/13 13:28:35;;;;;;;29.17;15.82;;;;;;;;;;5030657;28;20041;-90
2024/01/13 13:31:00;;;;;;;30.42;16.70;;;;;;;;;;5041574;28;20032;-95
2024/01/13 13:33:28;;;;;;;31.37;16.10;;;;;;;;;;5041833;28;20029;-92
2024/01/13 13:35:53;;;;;;;33.70;18.17;;;;;;;;;;5038679;28;20104;-96
2024/01/13 13:38:19;;;;;;;31.10;16.40;;;;;;;;;;5049049;28;20025;-92
2024/01/13 13:40:46;;;;;;;31.80;17.10;;;;;;;;;;5040918;28;20025;-95
2024/01/13 13:43:12;;;;;;;35.35;16.70;;;;;;;;;;5039468;28;20089;-94
2024/01/13 13:45:38;;;;;;;34.93;17.43;;;;;;;;;;5019452;28;20061;-94
2024/01/13 13:48:03;;;;;;;37.15;18.40;;;;;;;;;;5019586;28;20117;-92
2024/01/13 13:50:32;;;;;;;39.70;18.30;;;;;;;;;;5036829;28;20453;-92
2024/01/13 13:52:58;;;;;;;35.88;18.35;;;;;;;;;;5034493;28;20083;-91
2024/01/13 13:55:24;;;;;;;37.73;18.37;;;;;;;;;;5037006;28;20096;-92
2024/01/13 13:57:49;;;;;;;37.22;18.38;;;;;;;;;;5032791;28;20108;-94
2024/01/13 14:00:14;;;;;;;41.03;20.40;;;;;;;;;;5012000;28;20076;-93
2024/01/13 14:02:40;;;;;;;40.53;19.13;;;;;;;;;;5021947;28;20021;-91
2024/01/13 14:05:05;;;;;;;42.23;19.53;;;;;;;;;;5024216;28;20072;-91
2024/01/13 14:07:30;;;;;;;44.77;20.83;;;;;;;;;;5027867;28;20049;-91
2024/01/13 14:09:55;;;;;;;41.23;20.83;;;;;;;;;;5030261;28;20025;-94
2024/01/13 14:12:21;;;;;;;40.87;19.67;;;;;;;;;;5031511;28;20021;-93